sensor_id;sensor_type;location;lat;lon;timestamp;pressure;altitude;pressure_sealevel;temperature;humidity
74163;BME280;62515;52.758;5.076;2023-04-19T00:00:23;103037.38;;;8.93;100.00
74163;BME280;62515;52.758;5.076;2023-04-19T00:02:50;103040.56;;;8.75;100.00
74163;BME280;62515;52.758;5.076;2023-04-19T00:05:17;103027.66;;;8.63;100.00
74163;BME280;62515;52.758;5.076;2023-04-19T00:07:45;103043.91;;;8.82;100.00
74163;BME280;62515;52.758;5.076;2023-04-19T00:10:12;103043.13;;;8.78;100.00
74163;BME280;62515;52.758;5.076;2023-04-19T00:12:39;103018.69;;;8.67;100.00
74163;BME280;62515;52.758;5.076;2023-04-19T00:15:06;103037.03;;;8.75;100.00
74163;BME280;62515;52.758;5.076;2023-04-19T00:17:33;103036.09;;;8.77;100.00
74163;BME280;62515;52.758;5.076;2023-04-19T00:20:00;103038.84;;;8.74;100.00
74163;BME280;62515;52.758;5.076;2023-04-19T00:22:27;103038.22;;;8.65;100.00
74163;BME280;62515;52.758;5.076;2023-04-19T00:24:56;103031.97;;;8.66;100.00
74163;BME280;62515;52.758;5.076;2023-04-19T00:27:22;103041.81;;;8.62;100.00
74163;BME280;62515;52.758;5.076;2023-04-19T00:29:49;103041.81;;;8.62;100.00
74163;BME280;62515;52.758;5.076;2023-04-19T00:32:16;103043.47;;;8.66;100.00
74163;BME280;62515;52.758;5.076;2023-04-19T00:34:43;103040.94;;;8.62;100.00
74163;BME280;62515;52.758;5.076;2023-04-19T00:37:10;103036.78;;;8.53;100.00
74163;BME280;62515;52.758;5.076;2023-04-19T00:39:38;103033.16;;;8.56;100.00
74163;BME280;62515;52.758;5.076;2023-04-19T00:42:06;103035.09;;;8.51;100.00
74163;BME280;62515;52.758;5.076;2023-04-19T00:44:33;103031.56;;;8.50;100.00
74163;BME280;62515;52.758;5.076;2023-04-19T00:47:00;103038.78;;;8.45;100.00
74163;BME280;62515;52.758;5.076;2023-04-19T00:49:28;103030.25;;;8.34;100.00
74163;BME280;62515;52.758;5.076;2023-04-19T00:51:55;103028.50;;;8.33;100.00
74163;BME280;62515;52.758;5.076;2023-04-19T00:54:22;103025.06;;;8.29;100.00
74163;BME280;62515;52.758;5.076;2023-04-19T00:56:50;103023.81;;;8.43;100.00
74163;BME280;62515;52.758;5.076;2023-04-19T00:59:18;103028.13;;;8.47;100.00
74163;BME280;62515;52.758;5.076;2023-04-19T01:01:45;103031.72;;;8.44;100.00
74163;BME280;62515;52.758;5.076;2023-04-19T01:04:11;103028.31;;;8.39;100.00
74163;BME280;62515;52.758;5.076;2023-04-19T01:06:39;103026.59;;;8.38;100.00
74163;BME280;62515;52.758;5.076;2023-04-19T01:09:09;103028.50;;;8.33;100.00
74163;BME280;62515;52.758;5.076;2023-04-19T01:11:39;103026.63;;;8.36;100.00
74163;BME280;62515;52.758;5.076;2023-04-19T01:14:09;103019.53;;;8.37;100.00
74163;BME280;62515;52.758;5.076;2023-04-19T01:16:38;103027.63;;;8.32;100.00
74163;BME280;62515;52.758;5.076;2023-04-19T01:19:04;103020.63;;;8.30;100.00
74163;BME280;62515;52.758;5.076;2023-04-19T01:21:31;103023.19;;;8.33;100.00
74163;BME280;62515;52.758;5.076;2023-04-19T01:24:00;103021.50;;;8.30;100.00
74163;BME280;62515;52.758;5.076;2023-04-19T01:26:27;103010.78;;;8.35;100.00
74163;BME280;62515;52.758;5.076;2023-04-19T01:28:54;103024.22;;;8.29;100.00
74163;BME280;62515;52.758;5.076;2023-04-19T01:31:25;103016.16;;;8.32;100.00
74163;BME280;62515;52.758;5.076;2023-04-19T01:33:52;103003.16;;;8.21;100.00
74163;BME280;62515;52.758;5.076;2023-04-19T01:36:19;103012.78;;;8.25;100.00
74163;BME280;62515;52.758;5.076;2023-04-19T01:38:45;103016.53;;;8.17;100.00
74163;BME280;62515;52.758;5.076;2023-04-19T01:41:14;103022.72;;;8.17;100.00
74163;BME280;62515;52.758;5.076;2023-04-19T01:43:41;103025.50;;;8.13;100.00
74163;BME280;62515;52.758;5.076;2023-04-19T01:46:08;103028.81;;;8.21;100.00
74163;BME280;62515;52.758;5.076;2023-04-19T01:48:36;103028.88;;;8.18;100.00
74163;BME280;62515;52.758;5.076;2023-04-19T01:51:03;103009.34;;;8.22;100.00
74163;BME280;62515;52.758;5.076;2023-04-19T01:53:33;103020.84;;;8.21;100.00
74163;BME280;62515;52.758;5.076;2023-04-19T01:55:59;103011.94;;;8.23;100.00
74163;BME280;62515;52.758;5.076;2023-04-19T01:58:28;103012.91;;;8.19;100.00
74163;BME280;62515;52.758;5.076;2023-04-19T02:00:55;103008.41;;;8.23;100.00
74163;BME280;62515;52.758;5.076;2023-04-19T02:03:22;103012.72;;;8.27;100.00
74163;BME280;62515;52.758;5.076;2023-04-19T02:05:49;103020.81;;;8.22;100.00
74163;BME280;62515;52.758;5.076;2023-04-19T02:08:16;103023.50;;;8.21;100.00
74163;BME280;62515;52.758;5.076;2023-04-19T02:10:43;103013.84;;;8.18;100.00
74163;BME280;62515;52.758;5.076;2023-04-19T02:13:10;103019.25;;;8.14;100.00
74163;BME280;62515;52.758;5.076;2023-04-19T02:15:38;103018.28;;;8.18;100.00
74163;BME280;62515;52.758;5.076;2023-04-19T02:18:05;103020.97;;;8.16;100.00
74163;BME280;62515;52.758;5.076;2023-04-19T02:20:32;103020.75;;;8.24;100.00
74163;BME280;62515;52.758;5.076;2023-04-19T02:22:59;103011.31;;;8.14;100.00
74163;BME280;62515;52.758;5.076;2023-04-19T02:25:26;103020.84;;;8.21;100.00
74163;BME280;62515;52.758;5.076;2023-04-19T02:27:53;103023.59;;;8.18;100.00
74163;BME280;62515;52.758;5.076;2023-04-19T02:30:20;103030.66;;;8.17;100.00
74163;BME280;62515;52.758;5.076;2023-04-19T02:32:48;103028.97;;;8.15;100.00
74163;BME280;62515;52.758;5.076;2023-04-19T02:35:15;103013.50;;;7.98;100.00
74163;BME280;62515;52.758;5.076;2023-04-19T02:37:43;103032.88;;;8.00;100.00
74163;BME280;62515;52.758;5.076;2023-04-19T02:40:10;103022.34;;;7.99;100.00
74163;BME280;62515;52.758;5.076;2023-04-19T02:42:36;103018.84;;;7.97;100.00
74163;BME280;62515;52.758;5.076;2023-04-19T02:45:04;103026.75;;;7.98;100.00
74163;BME280;62515;52.758;5.076;2023-04-19T02:47:32;103030.22;;;8.02;100.00
74163;BME280;62515;52.758;5.076;2023-04-19T02:50:00;103034.75;;;7.97;100.00
74163;BME280;62515;52.758;5.076;2023-04-19T02:52:31;103027.56;;;8.00;100.00
74163;BME280;62515;52.758;5.076;2023-04-19T02:54:58;103029.44;;;7.97;100.00
74163;BME280;62515;52.758;5.076;2023-04-19T02:57:25;103033.91;;;7.96;100.00
74163;BME280;62515;52.758;5.076;2023-04-19T02:59:52;103026.75;;;8.00;100.00
74163;BME280;62515;52.758;5.076;2023-04-19T03:02:19;103024.91;;;8.02;100.00
74163;BME280;62515;52.758;5.076;2023-04-19T03:04:45;103031.19;;;7.98;100.00
74163;BME280;62515;52.758;5.076;2023-04-19T03:07:15;103032.84;;;8.02;100.00
74163;BME280;62515;52.758;5.076;2023-04-19T03:09:41;103023.22;;;7.98;100.00
74163;BME280;62515;52.758;5.076;2023-04-19T03:12:09;103032.84;;;8.02;100.00
74163;BME280;62515;52.758;5.076;2023-04-19T03:14:36;103030.28;;;7.99;100.00
74163;BME280;62515;52.758;5.076;2023-04-19T03:17:03;103024.22;;;7.94;100.00
74163;BME280;62515;52.758;5.076;2023-04-19T03:19:30;103027.72;;;7.96;100.00
74163;BME280;62515;52.758;5.076;2023-04-19T03:21:57;103026.84;;;7.95;100.00
74163;BME280;62515;52.758;5.076;2023-04-19T03:24:27;103026.03;;;7.93;100.00
74163;BME280;62515;52.758;5.076;2023-04-19T03:26:57;103026.06;;;7.90;100.00
74163;BME280;62515;52.758;5.076;2023-04-19T03:29:28;103027.97;;;7.86;100.00
74163;BME280;62515;52.758;5.076;2023-04-19T03:31:59;103015.53;;;7.88;100.00
74163;BME280;62515;52.758;5.076;2023-04-19T03:34:28;103026.06;;;7.92;100.00
74163;BME280;62515;52.758;5.076;2023-04-19T03:36:55;103020.75;;;7.92;100.00
74163;BME280;62515;52.758;5.076;2023-04-19T03:39:23;103015.47;;;7.90;100.00
74163;BME280;62515;52.758;5.076;2023-04-19T03:41:57;103024.38;;;7.87;100.00
74163;BME280;62515;52.758;5.076;2023-04-19T03:44:47;103021.81;;;7.84;100.00
74163;BME280;62515;52.758;5.076;2023-04-19T03:47:16;103018.13;;;7.90;100.00
74163;BME280;62515;52.758;5.076;2023-04-19T03:49:47;103014.72;;;7.86;100.00
74163;BME280;62515;52.758;5.076;2023-04-19T03:52:15;103004.91;;;7.88;100.00
74163;BME280;62515;52.758;5.076;2023-04-19T03:54:43;103018.09;;;7.92;100.00
74163;BME280;62515;52.758;5.076;2023-04-19T03:57:24;103022.56;;;7.89;100.00
74163;BME280;62515;52.758;5.076;2023-04-19T03:59:52;103006.59;;;7.93;100.00
74163;BME280;62515;52.758;5.076;2023-04-19T04:02:19;103017.31;;;7.88;100.00
74163;BME280;62515;52.758;5.076;2023-04-19T04:04:46;103018.25;;;7.85;100.00
74163;BME280;62515;52.758;5.076;2023-04-19T04:07:13;103014.84;;;7.80;100.00
74163;BME280;62515;52.758;5.076;2023-04-19T04:09:40;103023.81;;;7.76;100.00
74163;BME280;62515;52.758;5.076;2023-04-19T04:12:07;103019.38;;;7.77;100.00
74163;BME280;62515;52.758;5.076;2023-04-19T04:14:45;103011.34;;;7.80;100.00
74163;BME280;62515;52.758;5.076;2023-04-19T04:17:13;103020.13;;;7.82;100.00
74163;BME280;62515;52.758;5.076;2023-04-19T04:19:40;103016.78;;;7.74;100.00
74163;BME280;62515;52.758;5.076;2023-04-19T04:22:07;103029.13;;;7.75;100.00
74163;BME280;62515;52.758;5.076;2023-04-19T04:24:39;103024.69;;;7.77;100.00
74163;BME280;62515;52.758;5.076;2023-04-19T04:27:26;103023.03;;;7.71;100.00
74163;BME280;62515;52.758;5.076;2023-04-19T04:29:55;103025.84;;;7.65;100.00
74163;BME280;62515;52.758;5.076;2023-04-19T04:32:22;103024.25;;;7.58;100.00
74163;BME280;62515;52.758;5.076;2023-04-19T04:34:55;103025.16;;;7.57;100.00
74163;BME280;62515;52.758;5.076;2023-04-19T04:37:32;103023.41;;;7.56;100.00
74163;BME280;62515;52.758;5.076;2023-04-19T04:39:59;103030.56;;;7.53;100.00
74163;BME280;62515;52.758;5.076;2023-04-19T04:42:26;103033.19;;;7.54;100.00
74163;BME280;62515;52.758;5.076;2023-04-19T04:44:55;103020.75;;;7.56;100.00
74163;BME280;62515;52.758;5.076;2023-04-19T04:47:23;103031.28;;;7.61;100.00
74163;BME280;62515;52.758;5.076;2023-04-19T04:49:53;103030.56;;;7.53;100.00
74163;BME280;62515;52.758;5.076;2023-04-19T04:52:20;103035.94;;;7.50;100.00
74163;BME280;62515;52.758;5.076;2023-04-19T04:54:56;103046.63;;;7.47;100.00
74163;BME280;62515;52.758;5.076;2023-04-19T04:57:29;103052.81;;;7.46;100.00
74163;BME280;62515;52.758;5.076;2023-04-19T04:59:58;103038.63;;;7.48;100.00
74163;BME280;62515;52.758;5.076;2023-04-19T05:02:32;103045.63;;;7.51;100.00
74163;BME280;62515;52.758;5.076;2023-04-19T05:04:59;103051.78;;;7.51;100.00
74163;BME280;62515;52.758;5.076;2023-04-19T05:07:26;103052.50;;;7.58;100.00
74163;BME280;62515;52.758;5.076;2023-04-19T05:09:53;103048.94;;;7.60;100.00
74163;BME280;62515;52.758;5.076;2023-04-19T05:12:25;103048.97;;;7.59;100.00
74163;BME280;62515;52.758;5.076;2023-04-19T05:14:55;103049.91;;;7.56;100.00
74163;BME280;62515;52.758;5.076;2023-04-19T05:17:39;103051.44;;;7.66;100.00
74163;BME280;62515;52.758;5.076;2023-04-19T05:20:10;103044.63;;;7.90;100.00
74163;BME280;62515;52.758;5.076;2023-04-19T05:22:37;103038.50;;;7.89;100.00
74163;BME280;62515;52.758;5.076;2023-04-19T05:25:09;103040.91;;;7.97;100.00
74163;BME280;62515;52.758;5.076;2023-04-19T05:27:36;103041.63;;;8.04;100.00
74163;BME280;62515;52.758;5.076;2023-04-19T05:30:05;103043.53;;;7.99;100.00
74163;BME280;62515;52.758;5.076;2023-04-19T05:32:35;103046.63;;;8.16;100.00
74163;BME280;62515;52.758;5.076;2023-04-19T05:35:06;103047.34;;;8.22;100.00
74163;BME280;62515;52.758;5.076;2023-04-19T05:37:33;103047.47;;;8.16;100.00
74163;BME280;62515;52.758;5.076;2023-04-19T05:40:01;103051.25;;;8.08;100.00
74163;BME280;62515;52.758;5.076;2023-04-19T05:42:30;103048.59;;;8.08;100.00
74163;BME280;62515;52.758;5.076;2023-04-19T05:45:12;103052.22;;;8.05;100.00
74163;BME280;62515;52.758;5.076;2023-04-19T05:47:53;103054.22;;;7.96;100.00
74163;BME280;62515;52.758;5.076;2023-04-19T06:14:10;103068.84;;;8.10;100.00
74163;BME280;62515;52.758;5.076;2023-04-19T06:16:38;103060.03;;;8.10;100.00
74163;BME280;62515;52.758;5.076;2023-04-19T06:19:06;103067.97;;;8.10;100.00
74163;BME280;62515;52.758;5.076;2023-04-19T06:21:35;103060.72;;;8.52;100.00
74163;BME280;62515;52.758;5.076;2023-04-19T06:24:04;103066.97;;;8.49;100.00
74163;BME280;62515;52.758;5.076;2023-04-19T06:26:31;103076.84;;;8.44;100.00
74163;BME280;62515;52.758;5.076;2023-04-19T06:28:58;103076.50;;;8.56;100.00
74163;BME280;62515;52.758;5.076;2023-04-19T06:31:26;103089.31;;;8.71;100.00
74163;BME280;62515;52.758;5.076;2023-04-19T06:33:53;103073.94;;;8.84;100.00
74163;BME280;62515;52.758;5.076;2023-04-19T06:36:20;103081.50;;;8.98;100.00
74163;BME280;62515;52.758;5.076;2023-04-19T06:38:48;103075.16;;;8.72;100.00
74163;BME280;62515;52.758;5.076;2023-04-19T06:41:15;103082.47;;;8.64;100.00
74163;BME280;62515;52.758;5.076;2023-04-19T06:43:42;103083.50;;;8.59;100.00
74163;BME280;62515;52.758;5.076;2023-04-19T06:46:10;103084.34;;;8.61;100.00
74163;BME280;62515;52.758;5.076;2023-04-19T06:48:38;103077.69;;;8.77;100.00
74163;BME280;62515;52.758;5.076;2023-04-19T06:51:05;103079.50;;;8.75;100.00
74163;BME280;62515;52.758;5.076;2023-04-19T06:53:31;103087.09;;;8.58;100.00
74163;BME280;62515;52.758;5.076;2023-04-19T06:56:01;103088.69;;;8.63;100.00
74163;BME280;62515;52.758;5.076;2023-04-19T06:58:28;103081.31;;;8.74;100.00
74163;BME280;62515;52.758;5.076;2023-04-19T07:00:55;103067.25;;;8.71;100.00
74163;BME280;62515;52.758;5.076;2023-04-19T07:03:22;103070.34;;;8.85;100.00
74163;BME280;62515;52.758;5.076;2023-04-19T07:05:51;103087.09;;;9.18;100.00
74163;BME280;62515;52.758;5.076;2023-04-19T07:08:18;103070.44;;;9.13;100.00
74163;BME280;62515;52.758;5.076;2023-04-19T07:10:45;103081.47;;;8.99;100.00
74163;BME280;62515;52.758;5.076;2023-04-19T07:13:12;103073.78;;;8.90;100.00
74163;BME280;62515;52.758;5.076;2023-04-19T07:15:39;103069.09;;;8.98;100.00
74163;BME280;62515;52.758;5.076;2023-04-19T07:18:06;103073.50;;;8.99;100.00
74163;BME280;62515;52.758;5.076;2023-04-19T07:20:33;103071.81;;;8.97;100.00
74163;BME280;62515;52.758;5.076;2023-04-19T07:23:01;103074.69;;;8.89;100.00
74163;BME280;62515;52.758;5.076;2023-04-19T07:25:28;103067.59;;;8.88;100.00
74163;BME280;62515;52.758;5.076;2023-04-19T07:27:55;103071.81;;;8.97;100.00
74163;BME280;62515;52.758;5.076;2023-04-19T07:30:22;103078.03;;;8.96;100.00
74163;BME280;62515;52.758;5.076;2023-04-19T07:32:49;103079.41;;;9.09;100.00
74163;BME280;62515;52.758;5.076;2023-04-19T07:35:16;103081.97;;;9.12;100.00
74163;BME280;62515;52.758;5.076;2023-04-19T07:37:43;103079.41;;;9.09;100.00
74163;BME280;62515;52.758;5.076;2023-04-19T07:40:13;103082.13;;;9.35;100.00
74163;BME280;62515;52.758;5.076;2023-04-19T07:42:41;103081.75;;;9.47;100.00
74163;BME280;62515;52.758;5.076;2023-04-19T07:45:09;103074.16;;;9.35;100.00
74163;BME280;62515;52.758;5.076;2023-04-19T07:47:36;103079.63;;;9.58;100.00
74163;BME280;62515;52.758;5.076;2023-04-19T07:50:04;103083.75;;;9.68;100.00
74163;BME280;62515;52.758;5.076;2023-04-19T07:52:32;103086.19;;;9.74;100.00
74163;BME280;62515;52.758;5.076;2023-04-19T07:54:59;103094.31;;;10.24;100.00
74163;BME280;62515;52.758;5.076;2023-04-19T07:57:27;103077.47;;;10.73;100.00
74163;BME280;62515;52.758;5.076;2023-04-19T07:59:55;103075.00;;;10.67;100.00
74163;BME280;62515;52.758;5.076;2023-04-19T08:02:25;103085.97;;;10.59;100.00
74163;BME280;62515;52.758;5.076;2023-04-19T08:04:53;103092.03;;;10.38;100.00
74163;BME280;62515;52.758;5.076;2023-04-19T08:07:20;103080.03;;;10.51;100.00
74163;BME280;62515;52.758;5.076;2023-04-19T08:09:47;103076.25;;;11.49;100.00
74163;BME280;62515;52.758;5.076;2023-04-19T08:12:14;103083.25;;;11.75;100.00
74163;BME280;62515;52.758;5.076;2023-04-19T08:15:00;103074.97;;;12.23;100.00
74163;BME280;62515;52.758;5.076;2023-04-19T08:17:45;103084.16;;;11.74;100.00
74163;BME280;62515;52.758;5.076;2023-04-19T08:20:12;103076.78;;;11.14;100.00
74163;BME280;62515;52.758;5.076;2023-04-19T08:22:40;103079.72;;;11.07;100.00
74163;BME280;62515;52.758;5.076;2023-04-19T08:25:08;103075.97;;;11.57;100.00
74163;BME280;62515;52.758;5.076;2023-04-19T08:27:35;103079.81;;;11.93;100.00
74163;BME280;62515;52.758;5.076;2023-04-19T08:30:05;103070.97;;;12.13;100.00
74163;BME280;62515;52.758;5.076;2023-04-19T08:32:31;103063.03;;;12.12;100.00
74163;BME280;62515;52.758;5.076;2023-04-19T08:34:58;103063.28;;;12.66;100.00
74163;BME280;62515;52.758;5.076;2023-04-19T08:37:25;103074.03;;;12.04;100.00
74163;BME280;62515;52.758;5.076;2023-04-19T08:39:52;103061.50;;;11.41;100.00
74163;BME280;62515;52.758;5.076;2023-04-19T08:42:19;103058.22;;;11.78;100.00
74163;BME280;62515;52.758;5.076;2023-04-19T08:45:04;103055.22;;;11.42;100.00
74163;BME280;62515;52.758;5.076;2023-04-19T08:47:34;103066.97;;;11.38;100.00
74163;BME280;62515;52.758;5.076;2023-04-19T08:50:14;103064.91;;;11.66;100.00
74163;BME280;62515;52.758;5.076;2023-04-19T08:52:59;103070.56;;;11.59;100.00
74163;BME280;62515;52.758;5.076;2023-04-19T08:55:47;103069.91;;;10.85;100.00
74163;BME280;62515;52.758;5.076;2023-04-19T08:58:17;103057.84;;;11.65;100.00
74163;BME280;62515;52.758;5.076;2023-04-19T09:01:05;103051.34;;;12.14;100.00
74163;BME280;62515;52.758;5.076;2023-04-19T09:03:32;103065.78;;;11.67;100.00
74163;BME280;62515;52.758;5.076;2023-04-19T09:06:13;103053.38;;;11.44;100.00
74163;BME280;62515;52.758;5.076;2023-04-19T09:08:43;103060.00;;;11.55;100.00
74163;BME280;62515;52.758;5.076;2023-04-19T09:11:10;103058.09;;;11.59;100.00
74163;BME280;62515;52.758;5.076;2023-04-19T09:13:37;103048.97;;;12.28;100.00
74163;BME280;62515;52.758;5.076;2023-04-19T09:16:22;103053.63;;;12.43;100.00
74163;BME280;62515;52.758;5.076;2023-04-19T09:18:53;103041.59;;;12.53;100.00
74163;BME280;62515;52.758;5.076;2023-04-19T09:21:29;103042.81;;;12.65;100.00
74163;BME280;62515;52.758;5.076;2023-04-19T09:23:57;103039.75;;;12.74;100.00
74163;BME280;62515;52.758;5.076;2023-04-19T09:26:24;103047.13;;;12.49;100.00
74163;BME280;62515;52.758;5.076;2023-04-19T09:28:55;103041.03;;;12.84;100.00
74163;BME280;62515;52.758;5.076;2023-04-19T09:31:26;103046.81;;;13.33;100.00
74163;BME280;62515;52.758;5.076;2023-04-19T09:34:14;103039.16;;;13.25;100.00
74163;BME280;62515;52.758;5.076;2023-04-19T09:36:42;103044.38;;;13.08;100.00
74163;BME280;62515;52.758;5.076;2023-04-19T09:39:10;103043.91;;;13.37;100.00
74163;BME280;62515;52.758;5.076;2023-04-19T09:41:50;103042.94;;;13.57;100.00
74163;BME280;62515;52.758;5.076;2023-04-19T09:44:17;103043.34;;;13.12;100.00
74163;BME280;62515;52.758;5.076;2023-04-19T09:46:48;103042.66;;;13.80;100.00
74163;BME280;62515;52.758;5.076;2023-04-19T09:49:19;103029.59;;;14.26;100.00
74163;BME280;62515;52.758;5.076;2023-04-19T09:52:08;103038.09;;;13.99;96.84
74163;BME280;62515;52.758;5.076;2023-04-19T09:54:36;103041.69;;;13.64;100.00
74163;BME280;62515;52.758;5.076;2023-04-19T09:57:03;103034.34;;;14.03;94.47
74163;BME280;62515;52.758;5.076;2023-04-19T09:59:30;103029.44;;;14.11;91.17
74163;BME280;62515;52.758;5.076;2023-04-19T10:01:59;103028.22;;;13.66;100.00
74163;BME280;62515;52.758;5.076;2023-04-19T10:04:28;103019.50;;;14.48;96.28
74163;BME280;62515;52.758;5.076;2023-04-19T10:07:16;103024.84;;;13.79;91.22
74163;BME280;62515;52.758;5.076;2023-04-19T10:09:48;103023.06;;;13.97;88.05
74163;BME280;62515;52.758;5.076;2023-04-19T10:12:23;103022.19;;;13.96;84.90
74163;BME280;62515;52.758;5.076;2023-04-19T10:15:10;103013.84;;;14.02;85.20
74163;BME280;62515;52.758;5.076;2023-04-19T10:17:40;103007.72;;;14.35;92.68
74163;BME280;62515;52.758;5.076;2023-04-19T10:20:12;103007.41;;;14.06;86.16
74163;BME280;62515;52.758;5.076;2023-04-19T10:22:43;103021.16;;;14.16;100.00
74163;BME280;62515;52.758;5.076;2023-04-19T10:25:11;103003.75;;;14.75;88.56
74163;BME280;62515;52.758;5.076;2023-04-19T10:27:39;103006.47;;;14.57;76.70
74163;BME280;62515;52.758;5.076;2023-04-19T10:30:16;103011.13;;;14.54;66.99
74163;BME280;62515;52.758;5.076;2023-04-19T10:32:45;103007.03;;;14.80;69.62
74163;BME280;62515;52.758;5.076;2023-04-19T10:35:17;103009.81;;;14.94;65.79
74163;BME280;62515;52.758;5.076;2023-04-19T10:38:04;103002.31;;;15.00;64.89
74163;BME280;62515;52.758;5.076;2023-04-19T10:40:57;103012.84;;;14.88;72.25
74163;BME280;62515;52.758;5.076;2023-04-19T10:43:24;103003.72;;;14.59;75.57
74163;BME280;62515;52.758;5.076;2023-04-19T10:45:52;103005.31;;;14.79;77.42
74163;BME280;62515;52.758;5.076;2023-04-19T10:48:49;103013.22;;;14.97;73.71
74163;BME280;62515;52.758;5.076;2023-04-19T10:51:17;102995.88;;;14.72;82.52
74163;BME280;62515;52.758;5.076;2023-04-19T10:53:49;102999.28;;;14.91;88.90
74163;BME280;62515;52.758;5.076;2023-04-19T10:56:17;102996.75;;;15.19;72.08
74163;BME280;62515;52.758;5.076;2023-04-19T10:59:15;102991.28;;;14.74;73.31
74163;BME280;62515;52.758;5.076;2023-04-19T11:01:44;102970.81;;;14.73;69.69
74163;BME280;62515;52.758;5.076;2023-04-19T11:04:14;102976.19;;;14.88;76.17
74163;BME280;62515;52.758;5.076;2023-04-19T11:06:56;102984.94;;;14.92;71.96
74163;BME280;62515;52.758;5.076;2023-04-19T11:09:24;102975.16;;;15.06;77.23
74163;BME280;62515;52.758;5.076;2023-04-19T11:11:52;102975.22;;;15.36;79.87
74163;BME280;62515;52.758;5.076;2023-04-19T11:14:20;102975.31;;;15.80;77.46
74163;BME280;62515;52.758;5.076;2023-04-19T11:16:47;102974.25;;;16.12;68.30
74163;BME280;62515;52.758;5.076;2023-04-19T11:19:15;102964.16;;;16.16;71.62
74163;BME280;62515;52.758;5.076;2023-04-19T11:21:44;102965.94;;;15.42;72.06
74163;BME280;62515;52.758;5.076;2023-04-19T11:24:12;102967.44;;;15.77;77.19
74163;BME280;62515;52.758;5.076;2023-04-19T11:26:41;102964.84;;;15.76;78.96
74163;BME280;62515;52.758;5.076;2023-04-19T11:29:08;102954.69;;;16.25;95.16
74163;BME280;62515;52.758;5.076;2023-04-19T11:31:35;102952.63;;;16.00;82.63
74163;BME280;62515;52.758;5.076;2023-04-19T11:34:02;102965.81;;;16.18;83.47
74163;BME280;62515;52.758;5.076;2023-04-19T11:36:31;102954.53;;;15.98;80.37
74163;BME280;62515;52.758;5.076;2023-04-19T11:38:57;102949.50;;;16.21;83.64
74163;BME280;62515;52.758;5.076;2023-04-19T11:41:24;102956.00;;;16.46;88.51
74163;BME280;62515;52.758;5.076;2023-04-19T11:43:51;102951.59;;;16.02;86.21
74163;BME280;62515;52.758;5.076;2023-04-19T11:46:19;102956.50;;;15.80;85.12
74163;BME280;62515;52.758;5.076;2023-04-19T11:48:50;102947.06;;;15.59;85.53
74163;BME280;62515;52.758;5.076;2023-04-19T11:51:17;102957.22;;;15.98;79.51
74163;BME280;62515;52.758;5.076;2023-04-19T11:53:46;102947.94;;;16.46;90.18
74163;BME280;62515;52.758;5.076;2023-04-19T11:56:13;102935.03;;;15.80;80.68
74163;BME280;62515;52.758;5.076;2023-04-19T11:58:41;102940.94;;;16.01;95.22
74163;BME280;62515;52.758;5.076;2023-04-19T12:01:10;102941.75;;;15.73;88.07
74163;BME280;62515;52.758;5.076;2023-04-19T12:03:40;102937.03;;;16.63;100.00
74163;BME280;62515;52.758;5.076;2023-04-19T12:06:11;102930.88;;;16.33;91.12
74163;BME280;62515;52.758;5.076;2023-04-19T12:08:49;102918.88;;;15.96;96.99
74163;BME280;62515;52.758;5.076;2023-04-19T12:11:18;102921.97;;;15.74;90.85
74163;BME280;62515;52.758;5.076;2023-04-19T12:13:46;102914.72;;;15.76;92.68
74163;BME280;62515;52.758;5.076;2023-04-19T12:16:13;102904.56;;;16.09;80.62
74163;BME280;62515;52.758;5.076;2023-04-19T12:21:12;102906.88;;;16.44;84.14
74163;BME280;62515;52.758;5.076;2023-04-19T12:23:52;102905.34;;;16.54;77.83
74163;BME280;62515;52.758;5.076;2023-04-19T12:26:20;102899.53;;;16.88;74.58
74163;BME280;62515;52.758;5.076;2023-04-19T12:28:47;102899.41;;;16.63;75.19
74163;BME280;62515;52.758;5.076;2023-04-19T12:31:14;102903.03;;;16.62;75.08
74163;BME280;62515;52.758;5.076;2023-04-19T12:33:41;102903.44;;;16.70;90.55
74163;BME280;62515;52.758;5.076;2023-04-19T12:36:08;102904.78;;;16.35;85.05
74163;BME280;62515;52.758;5.076;2023-04-19T12:38:34;102908.63;;;16.02;90.85
74163;BME280;62515;52.758;5.076;2023-04-19T12:41:03;102899.59;;;16.74;90.13
74163;BME280;62515;52.758;5.076;2023-04-19T12:43:30;102894.59;;;16.54;87.43
74163;BME280;62515;52.758;5.076;2023-04-19T12:45:57;102893.13;;;16.77;99.05
74163;BME280;62515;52.758;5.076;2023-04-19T12:48:24;102882.97;;;15.68;88.54
74163;BME280;62515;52.758;5.076;2023-04-19T12:50:51;102888.59;;;15.18;100.00
74163;BME280;62515;52.758;5.076;2023-04-19T12:53:18;102887.78;;;15.18;100.00
74163;BME280;62515;52.758;5.076;2023-04-19T12:55:45;102882.97;;;14.78;100.00
74163;BME280;62515;52.758;5.076;2023-04-19T12:58:13;102882.78;;;14.96;100.00
74163;BME280;62515;52.758;5.076;2023-04-19T13:00:40;102886.16;;;14.84;100.00
74163;BME280;62515;52.758;5.076;2023-04-19T13:03:07;102878.72;;;14.58;100.00
74163;BME280;62515;52.758;5.076;2023-04-19T13:05:34;102868.13;;;14.56;100.00
74163;BME280;62515;52.758;5.076;2023-04-19T13:08:01;102853.34;;;15.10;100.00
74163;BME280;62515;52.758;5.076;2023-04-19T13:10:28;102859.47;;;15.12;100.00
74163;BME280;62515;52.758;5.076;2023-04-19T13:12:55;102855.09;;;15.11;100.00
74163;BME280;62515;52.758;5.076;2023-04-19T13:15:24;102861.63;;;15.22;100.00
74163;BME280;62515;52.758;5.076;2023-04-19T13:17:56;102849.47;;;15.00;100.00
74163;BME280;62515;52.758;5.076;2023-04-19T13:20:26;102847.88;;;14.82;100.00
74163;BME280;62515;52.758;5.076;2023-04-19T13:22:53;102848.38;;;14.73;100.00
74163;BME280;62515;52.758;5.076;2023-04-19T13:25:20;102842.25;;;14.40;100.00